sensor_id;sensor_type;location;lat;lon;timestamp;P1;durP1;ratioP1;P2;durP2;ratioP2
36247;SDS011;22287;50.824;5.644;2023-02-13T00:00:17;34.92;;;16.05;;
36247;SDS011;22287;50.824;5.644;2023-02-13T00:02:45;37.10;;;15.50;;
36247;SDS011;22287;50.824;5.644;2023-02-13T00:05:12;35.77;;;13.60;;
36247;SDS011;22287;50.824;5.644;2023-02-13T00:07:39;31.55;;;14.52;;
36247;SDS011;22287;50.824;5.644;2023-02-13T00:10:06;31.53;;;14.33;;
36247;SDS011;22287;50.824;5.644;2023-02-13T00:12:34;30.47;;;14.37;;
36247;SDS011;22287;50.824;5.644;2023-02-13T00:15:01;31.63;;;15.47;;
36247;SDS011;22287;50.824;5.644;2023-02-13T00:17:29;32.93;;;15.00;;
36247;SDS011;22287;50.824;5.644;2023-02-13T00:19:56;34.80;;;14.80;;
36247;SDS011;22287;50.824;5.644;2023-02-13T00:22:23;30.30;;;13.67;;
36247;SDS011;22287;50.824;5.644;2023-02-13T00:24:50;31.93;;;14.33;;
36247;SDS011;22287;50.824;5.644;2023-02-13T00:27:17;32.03;;;12.77;;
36247;SDS011;22287;50.824;5.644;2023-02-13T00:29:44;30.40;;;14.47;;
36247;SDS011;22287;50.824;5.644;2023-02-13T00:32:11;30.77;;;13.23;;
36247;SDS011;22287;50.824;5.644;2023-02-13T00:34:39;28.87;;;13.03;;
36247;SDS011;22287;50.824;5.644;2023-02-13T00:37:06;24.73;;;12.27;;
36247;SDS011;22287;50.824;5.644;2023-02-13T00:39:32;24.77;;;12.53;;
36247;SDS011;22287;50.824;5.644;2023-02-13T00:41:59;26.50;;;13.40;;
36247;SDS011;22287;50.824;5.644;2023-02-13T00:44:26;28.20;;;12.87;;
36247;SDS011;22287;50.824;5.644;2023-02-13T00:46:53;26.67;;;12.57;;
36247;SDS011;22287;50.824;5.644;2023-02-13T00:49:21;27.70;;;12.97;;
36247;SDS011;22287;50.824;5.644;2023-02-13T00:51:48;23.40;;;11.13;;
36247;SDS011;22287;50.824;5.644;2023-02-13T00:54:15;23.20;;;12.97;;
36247;SDS011;22287;50.824;5.644;2023-02-13T00:56:42;24.50;;;12.60;;
36247;SDS011;22287;50.824;5.644;2023-02-13T00:59:11;23.83;;;12.03;;
36247;SDS011;22287;50.824;5.644;2023-02-13T01:01:38;22.00;;;10.77;;
36247;SDS011;22287;50.824;5.644;2023-02-13T01:04:05;27.50;;;11.83;;
36247;SDS011;22287;50.824;5.644;2023-02-13T01:06:32;20.20;;;12.00;;
36247;SDS011;22287;50.824;5.644;2023-02-13T01:08:59;22.83;;;10.87;;
36247;SDS011;22287;50.824;5.644;2023-02-13T01:11:28;20.57;;;10.57;;
36247;SDS011;22287;50.824;5.644;2023-02-13T01:13:59;22.52;;;11.25;;
36247;SDS011;22287;50.824;5.644;2023-02-13T01:16:25;24.60;;;11.53;;
36247;SDS011;22287;50.824;5.644;2023-02-13T01:18:53;27.23;;;12.47;;
36247;SDS011;22287;50.824;5.644;2023-02-13T01:21:21;23.60;;;11.90;;
36247;SDS011;22287;50.824;5.644;2023-02-13T01:23:51;20.00;;;10.07;;
36247;SDS011;22287;50.824;5.644;2023-02-13T01:26:20;22.30;;;11.70;;
36247;SDS011;22287;50.824;5.644;2023-02-13T01:28:52;21.53;;;12.37;;
36247;SDS011;22287;50.824;5.644;2023-02-13T01:33:48;25.77;;;11.63;;
36247;SDS011;22287;50.824;5.644;2023-02-13T01:38:46;21.20;;;11.23;;
36247;SDS011;22287;50.824;5.644;2023-02-13T01:41:12;21.10;;;11.17;;
36247;SDS011;22287;50.824;5.644;2023-02-13T01:43:51;26.80;;;12.10;;
36247;SDS011;22287;50.824;5.644;2023-02-13T01:46:21;22.43;;;11.07;;
36247;SDS011;22287;50.824;5.644;2023-02-13T01:48:52;29.50;;;12.80;;
36247;SDS011;22287;50.824;5.644;2023-02-13T01:51:24;23.80;;;11.90;;
36247;SDS011;22287;50.824;5.644;2023-02-13T01:53:58;19.83;;;11.00;;
36247;SDS011;22287;50.824;5.644;2023-02-13T01:56:31;20.70;;;11.37;;
36247;SDS011;22287;50.824;5.644;2023-02-13T01:59:03;23.93;;;11.87;;
36247;SDS011;22287;50.824;5.644;2023-02-13T02:01:34;24.77;;;11.40;;
36247;SDS011;22287;50.824;5.644;2023-02-13T02:04:06;23.83;;;11.60;;
36247;SDS011;22287;50.824;5.644;2023-02-13T02:06:46;25.30;;;12.80;;
36247;SDS011;22287;50.824;5.644;2023-02-13T02:09:24;22.50;;;11.83;;
36247;SDS011;22287;50.824;5.644;2023-02-13T02:11:59;41.53;;;12.50;;
36247;SDS011;22287;50.824;5.644;2023-02-13T02:14:34;25.53;;;11.73;;
36247;SDS011;22287;50.824;5.644;2023-02-13T02:17:05;22.88;;;12.25;;
36247;SDS011;22287;50.824;5.644;2023-02-13T02:19:35;24.47;;;12.13;;
36247;SDS011;22287;50.824;5.644;2023-02-13T02:24:40;23.87;;;11.07;;
36247;SDS011;22287;50.824;5.644;2023-02-13T02:27:21;22.53;;;10.90;;
36247;SDS011;22287;50.824;5.644;2023-02-13T02:41:14;29.33;;;13.80;;
36247;SDS011;22287;50.824;5.644;2023-02-13T02:46:49;25.70;;;12.43;;
36247;SDS011;22287;50.824;5.644;2023-02-13T02:49:39;29.63;;;14.00;;
36247;SDS011;22287;50.824;5.644;2023-02-13T02:52:48;30.43;;;15.07;;
36247;SDS011;22287;50.824;5.644;2023-02-13T02:55:33;35.53;;;14.07;;
36247;SDS011;22287;50.824;5.644;2023-02-13T02:58:04;26.90;;;13.07;;
36247;SDS011;22287;50.824;5.644;2023-02-13T03:01:00;27.60;;;12.80;;
36247;SDS011;22287;50.824;5.644;2023-02-13T03:03:49;28.30;;;12.97;;
36247;SDS011;22287;50.824;5.644;2023-02-13T03:09:21;25.93;;;12.20;;
36247;SDS011;22287;50.824;5.644;2023-02-13T03:12:11;29.03;;;14.53;;
36247;SDS011;22287;50.824;5.644;2023-02-13T03:15:01;30.05;;;14.60;;
36247;SDS011;22287;50.824;5.644;2023-02-13T03:17:28;33.70;;;14.70;;
36247;SDS011;22287;50.824;5.644;2023-02-13T03:34:46;30.63;;;14.07;;
36247;SDS011;22287;50.824;5.644;2023-02-13T03:37:38;32.07;;;15.10;;
36247;SDS011;22287;50.824;5.644;2023-02-13T03:43:29;27.40;;;14.03;;
36247;SDS011;22287;50.824;5.644;2023-02-13T03:46:02;29.00;;;14.77;;
36247;SDS011;22287;50.824;5.644;2023-02-13T03:48:31;37.47;;;13.23;;
36247;SDS011;22287;50.824;5.644;2023-02-13T03:51:24;33.33;;;14.43;;
36247;SDS011;22287;50.824;5.644;2023-02-13T03:53:57;26.57;;;13.13;;
36247;SDS011;22287;50.824;5.644;2023-02-13T03:56:28;30.23;;;13.10;;
36247;SDS011;22287;50.824;5.644;2023-02-13T03:59:39;26.63;;;13.43;;
36247;SDS011;22287;50.824;5.644;2023-02-13T04:02:07;32.13;;;14.37;;
36247;SDS011;22287;50.824;5.644;2023-02-13T04:04:44;29.77;;;14.30;;
36247;SDS011;22287;50.824;5.644;2023-02-13T04:07:20;26.53;;;13.53;;
36247;SDS011;22287;50.824;5.644;2023-02-13T04:10:05;27.40;;;12.93;;
36247;SDS011;22287;50.824;5.644;2023-02-13T04:12:37;34.60;;;14.67;;
36247;SDS011;22287;50.824;5.644;2023-02-13T04:15:13;42.20;;;15.40;;
36247;SDS011;22287;50.824;5.644;2023-02-13T04:17:43;40.58;;;14.95;;
36247;SDS011;22287;50.824;5.644;2023-02-13T04:20:14;39.47;;;14.97;;
36247;SDS011;22287;50.824;5.644;2023-02-13T04:22:45;46.20;;;17.97;;
36247;SDS011;22287;50.824;5.644;2023-02-13T04:25:14;41.70;;;14.73;;
36247;SDS011;22287;50.824;5.644;2023-02-13T04:27:42;40.33;;;16.43;;
36247;SDS011;22287;50.824;5.644;2023-02-13T04:30:10;43.67;;;16.40;;
36247;SDS011;22287;50.824;5.644;2023-02-13T04:32:37;43.10;;;15.17;;
36247;SDS011;22287;50.824;5.644;2023-02-13T04:35:04;34.80;;;16.37;;
36247;SDS011;22287;50.824;5.644;2023-02-13T04:37:31;36.70;;;16.10;;
36247;SDS011;22287;50.824;5.644;2023-02-13T04:39:57;38.43;;;16.33;;
36247;SDS011;22287;50.824;5.644;2023-02-13T04:42:24;35.77;;;15.13;;
36247;SDS011;22287;50.824;5.644;2023-02-13T04:44:51;44.10;;;17.03;;
36247;SDS011;22287;50.824;5.644;2023-02-13T04:47:18;35.47;;;16.37;;
36247;SDS011;22287;50.824;5.644;2023-02-13T04:49:44;37.53;;;15.37;;
36247;SDS011;22287;50.824;5.644;2023-02-13T04:52:11;34.23;;;15.23;;
36247;SDS011;22287;50.824;5.644;2023-02-13T04:54:38;35.67;;;15.17;;
36247;SDS011;22287;50.824;5.644;2023-02-13T04:57:04;33.67;;;14.30;;
36247;SDS011;22287;50.824;5.644;2023-02-13T04:59:31;36.40;;;15.73;;
36247;SDS011;22287;50.824;5.644;2023-02-13T05:01:58;33.67;;;15.60;;
36247;SDS011;22287;50.824;5.644;2023-02-13T05:04:25;30.97;;;15.73;;
36247;SDS011;22287;50.824;5.644;2023-02-13T05:06:52;36.83;;;15.03;;
36247;SDS011;22287;50.824;5.644;2023-02-13T05:09:19;41.07;;;16.07;;
36247;SDS011;22287;50.824;5.644;2023-02-13T05:11:46;45.57;;;19.80;;
36247;SDS011;22287;50.824;5.644;2023-02-13T05:14:13;46.43;;;18.33;;
36247;SDS011;22287;50.824;5.644;2023-02-13T05:16:39;50.37;;;18.53;;
36247;SDS011;22287;50.824;5.644;2023-02-13T05:19:06;51.57;;;18.37;;
36247;SDS011;22287;50.824;5.644;2023-02-13T05:21:34;140.63;;;24.47;;
36247;SDS011;22287;50.824;5.644;2023-02-13T05:24:19;54.20;;;18.63;;
36247;SDS011;22287;50.824;5.644;2023-02-13T05:26:46;47.57;;;19.63;;
36247;SDS011;22287;50.824;5.644;2023-02-13T05:29:13;51.13;;;19.13;;
36247;SDS011;22287;50.824;5.644;2023-02-13T05:31:51;50.40;;;18.57;;
36247;SDS011;22287;50.824;5.644;2023-02-13T05:34:20;44.63;;;17.73;;
36247;SDS011;22287;50.824;5.644;2023-02-13T05:36:48;53.37;;;16.87;;
36247;SDS011;22287;50.824;5.644;2023-02-13T05:39:16;42.10;;;16.03;;
36247;SDS011;22287;50.824;5.644;2023-02-13T05:41:43;45.40;;;17.97;;
36247;SDS011;22287;50.824;5.644;2023-02-13T05:44:11;47.13;;;17.20;;
36247;SDS011;22287;50.824;5.644;2023-02-13T05:46:38;38.80;;;16.00;;
36247;SDS011;22287;50.824;5.644;2023-02-13T05:49:06;44.43;;;16.23;;
36247;SDS011;22287;50.824;5.644;2023-02-13T05:51:35;45.03;;;17.80;;
36247;SDS011;22287;50.824;5.644;2023-02-13T05:54:02;38.47;;;16.00;;
36247;SDS011;22287;50.824;5.644;2023-02-13T05:56:28;48.37;;;17.23;;
36247;SDS011;22287;50.824;5.644;2023-02-13T05:58:56;41.03;;;15.60;;
36247;SDS011;22287;50.824;5.644;2023-02-13T06:01:23;36.13;;;14.50;;
36247;SDS011;22287;50.824;5.644;2023-02-13T06:03:50;35.73;;;15.77;;
36247;SDS011;22287;50.824;5.644;2023-02-13T06:06:17;34.93;;;14.63;;
36247;SDS011;22287;50.824;5.644;2023-02-13T06:08:45;34.43;;;14.63;;
36247;SDS011;22287;50.824;5.644;2023-02-13T06:11:11;37.03;;;16.10;;
36247;SDS011;22287;50.824;5.644;2023-02-13T06:13:38;40.97;;;15.07;;
36247;SDS011;22287;50.824;5.644;2023-02-13T06:16:06;41.63;;;15.00;;
36247;SDS011;22287;50.824;5.644;2023-02-13T06:18:34;36.67;;;14.47;;
36247;SDS011;22287;50.824;5.644;2023-02-13T06:21:01;35.97;;;13.57;;
36247;SDS011;22287;50.824;5.644;2023-02-13T06:23:28;38.80;;;14.03;;
36247;SDS011;22287;50.824;5.644;2023-02-13T06:25:55;36.10;;;13.93;;
36247;SDS011;22287;50.824;5.644;2023-02-13T06:28:22;31.93;;;12.07;;
36247;SDS011;22287;50.824;5.644;2023-02-13T06:30:49;29.57;;;12.93;;
36247;SDS011;22287;50.824;5.644;2023-02-13T06:33:16;38.33;;;12.30;;
36247;SDS011;22287;50.824;5.644;2023-02-13T06:35:42;30.27;;;11.40;;
36247;SDS011;22287;50.824;5.644;2023-02-13T06:38:09;34.50;;;12.10;;
36247;SDS011;22287;50.824;5.644;2023-02-13T06:40:36;30.90;;;11.97;;
36247;SDS011;22287;50.824;5.644;2023-02-13T06:43:03;31.60;;;11.83;;
36247;SDS011;22287;50.824;5.644;2023-02-13T06:45:30;28.40;;;12.40;;
36247;SDS011;22287;50.824;5.644;2023-02-13T06:47:57;31.13;;;12.73;;
36247;SDS011;22287;50.824;5.644;2023-02-13T06:50:23;31.80;;;11.80;;
36247;SDS011;22287;50.824;5.644;2023-02-13T06:52:50;33.17;;;17.73;;
36247;SDS011;22287;50.824;5.644;2023-02-13T06:55:18;37.73;;;17.40;;
36247;SDS011;22287;50.824;5.644;2023-02-13T06:57:46;54.07;;;17.60;;
36247;SDS011;22287;50.824;5.644;2023-02-13T07:00:14;39.97;;;17.13;;
36247;SDS011;22287;50.824;5.644;2023-02-13T07:02:43;37.17;;;16.00;;
36247;SDS011;22287;50.824;5.644;2023-02-13T07:05:11;36.33;;;14.63;;
36247;SDS011;22287;50.824;5.644;2023-02-13T07:07:39;36.43;;;14.03;;
36247;SDS011;22287;50.824;5.644;2023-02-13T07:10:08;40.97;;;14.67;;
36247;SDS011;22287;50.824;5.644;2023-02-13T07:12:37;41.67;;;14.95;;
36247;SDS011;22287;50.824;5.644;2023-02-13T07:15:04;36.10;;;14.70;;
36247;SDS011;22287;50.824;5.644;2023-02-13T07:17:32;42.03;;;13.70;;
36247;SDS011;22287;50.824;5.644;2023-02-13T07:19:59;34.20;;;12.97;;
36247;SDS011;22287;50.824;5.644;2023-02-13T07:22:26;31.47;;;13.13;;
36247;SDS011;22287;50.824;5.644;2023-02-13T07:24:53;35.87;;;13.47;;
36247;SDS011;22287;50.824;5.644;2023-02-13T07:27:20;45.47;;;13.73;;
36247;SDS011;22287;50.824;5.644;2023-02-13T07:29:46;37.73;;;14.47;;
36247;SDS011;22287;50.824;5.644;2023-02-13T07:32:13;33.90;;;13.93;;
36247;SDS011;22287;50.824;5.644;2023-02-13T07:34:40;35.27;;;14.27;;
36247;SDS011;22287;50.824;5.644;2023-02-13T07:37:26;41.47;;;13.07;;
36247;SDS011;22287;50.824;5.644;2023-02-13T07:39:54;37.60;;;12.80;;
36247;SDS011;22287;50.824;5.644;2023-02-13T07:42:21;42.03;;;14.60;;
36247;SDS011;22287;50.824;5.644;2023-02-13T07:44:47;36.40;;;13.17;;
36247;SDS011;22287;50.824;5.644;2023-02-13T07:47:14;39.27;;;14.60;;
36247;SDS011;22287;50.824;5.644;2023-02-13T07:49:45;35.58;;;14.43;;
36247;SDS011;22287;50.824;5.644;2023-02-13T07:52:12;56.70;;;17.20;;
36247;SDS011;22287;50.824;5.644;2023-02-13T07:54:39;59.10;;;21.13;;
36247;SDS011;22287;50.824;5.644;2023-02-13T07:57:17;41.27;;;17.27;;
36247;SDS011;22287;50.824;5.644;2023-02-13T07:59:44;49.20;;;20.10;;
36247;SDS011;22287;50.824;5.644;2023-02-13T08:02:12;49.27;;;23.83;;
36247;SDS011;22287;50.824;5.644;2023-02-13T08:04:40;49.80;;;21.07;;
36247;SDS011;22287;50.824;5.644;2023-02-13T08:07:12;45.27;;;17.63;;
36247;SDS011;22287;50.824;5.644;2023-02-13T08:09:40;50.17;;;17.80;;
36247;SDS011;22287;50.824;5.644;2023-02-13T08:12:47;41.33;;;17.87;;
36247;SDS011;22287;50.824;5.644;2023-02-13T08:15:14;49.90;;;17.87;;
36247;SDS011;22287;50.824;5.644;2023-02-13T08:17:41;44.50;;;18.00;;
36247;SDS011;22287;50.824;5.644;2023-02-13T08:20:08;47.80;;;18.00;;
36247;SDS011;22287;50.824;5.644;2023-02-13T08:22:36;32.13;;;15.80;;
36247;SDS011;22287;50.824;5.644;2023-02-13T08:25:04;36.27;;;15.10;;
36247;SDS011;22287;50.824;5.644;2023-02-13T08:27:32;37.60;;;16.10;;
36247;SDS011;22287;50.824;5.644;2023-02-13T08:29:59;39.10;;;14.10;;
36247;SDS011;22287;50.824;5.644;2023-02-13T08:32:27;36.60;;;15.27;;
36247;SDS011;22287;50.824;5.644;2023-02-13T08:34:54;36.53;;;14.93;;
36247;SDS011;22287;50.824;5.644;2023-02-13T08:37:20;31.65;;;14.30;;
36247;SDS011;22287;50.824;5.644;2023-02-13T08:39:47;33.93;;;14.70;;
36247;SDS011;22287;50.824;5.644;2023-02-13T08:42:14;36.30;;;14.00;;
36247;SDS011;22287;50.824;5.644;2023-02-13T08:44:41;35.67;;;14.57;;
36247;SDS011;22287;50.824;5.644;2023-02-13T08:47:08;34.23;;;13.60;;
36247;SDS011;22287;50.824;5.644;2023-02-13T08:49:35;38.93;;;14.33;;
36247;SDS011;22287;50.824;5.644;2023-02-13T08:52:02;30.57;;;13.37;;
36247;SDS011;22287;50.824;5.644;2023-02-13T08:54:30;31.65;;;14.13;;
36247;SDS011;22287;50.824;5.644;2023-02-13T08:56:56;30.80;;;13.50;;
36247;SDS011;22287;50.824;5.644;2023-02-13T08:59:24;35.63;;;12.65;;
36247;SDS011;22287;50.824;5.644;2023-02-13T09:01:50;25.77;;;12.43;;
36247;SDS011;22287;50.824;5.644;2023-02-13T09:04:17;27.67;;;13.43;;
36247;SDS011;22287;50.824;5.644;2023-02-13T09:06:44;26.75;;;12.40;;
36247;SDS011;22287;50.824;5.644;2023-02-13T09:09:11;33.40;;;12.77;;
36247;SDS011;22287;50.824;5.644;2023-02-13T09:11:38;29.33;;;13.02;;
36247;SDS011;22287;50.824;5.644;2023-02-13T09:14:05;24.65;;;13.43;;
36247;SDS011;22287;50.824;5.644;2023-02-13T09:16:32;24.52;;;12.52;;
36247;SDS011;22287;50.824;5.644;2023-02-13T09:18:59;30.63;;;12.05;;
36247;SDS011;22287;50.824;5.644;2023-02-13T09:21:26;25.00;;;11.90;;
36247;SDS011;22287;50.824;5.644;2023-02-13T09:23:52;22.70;;;11.30;;
36247;SDS011;22287;50.824;5.644;2023-02-13T09:26:20;21.38;;;12.00;;
36247;SDS011;22287;50.824;5.644;2023-02-13T09:28:47;24.80;;;11.23;;
36247;SDS011;22287;50.824;5.644;2023-02-13T09:31:15;23.40;;;10.70;;
36247;SDS011;22287;50.824;5.644;2023-02-13T09:33:47;28.00;;;11.65;;
36247;SDS011;22287;50.824;5.644;2023-02-13T09:36:19;19.13;;;10.85;;
36247;SDS011;22287;50.824;5.644;2023-02-13T09:38:47;19.63;;;10.73;;
36247;SDS011;22287;50.824;5.644;2023-02-13T09:41:19;23.08;;;10.10;;
36247;SDS011;22287;50.824;5.644;2023-02-13T09:43:50;19.08;;;10.27;;
36247;SDS011;22287;50.824;5.644;2023-02-13T09:46:30;19.23;;;10.00;;
36247;SDS011;22287;50.824;5.644;2023-02-13T09:49:07;19.60;;;11.32;;
36247;SDS011;22287;50.824;5.644;2023-02-13T09:51:39;22.75;;;10.55;;
36247;SDS011;22287;50.824;5.644;2023-02-13T09:54:10;20.83;;;10.55;;
36247;SDS011;22287;50.824;5.644;2023-02-13T09:56:47;26.35;;;11.80;;
36247;SDS011;22287;50.824;5.644;2023-02-13T09:59:33;20.52;;;11.50;;
36247;SDS011;22287;50.824;5.644;2023-02-13T10:04:56;25.90;;;10.40;;
36247;SDS011;22287;50.824;5.644;2023-02-13T10:10:01;27.33;;;11.73;;
36247;SDS011;22287;50.824;5.644;2023-02-13T10:15:45;25.75;;;11.88;;
36247;SDS011;22287;50.824;5.644;2023-02-13T10:18:21;21.00;;;11.90;;
36247;SDS011;22287;50.824;5.644;2023-02-13T10:20:58;25.90;;;11.63;;
36247;SDS011;22287;50.824;5.644;2023-02-13T10:26:31;26.25;;;11.45;;
36247;SDS011;22287;50.824;5.644;2023-02-13T10:32:36;23.63;;;12.00;;
36247;SDS011;22287;50.824;5.644;2023-02-13T10:35:19;23.40;;;11.52;;
36247;SDS011;22287;50.824;5.644;2023-02-13T10:37:55;28.17;;;12.30;;
36247;SDS011;22287;50.824;5.644;2023-02-13T10:40:39;21.73;;;11.20;;
36247;SDS011;22287;50.824;5.644;2023-02-13T10:43:18;20.55;;;10.98;;
36247;SDS011;22287;50.824;5.644;2023-02-13T10:48:47;25.48;;;10.45;;
36247;SDS011;22287;50.824;5.644;2023-02-13T10:51:22;18.48;;;10.23;;
36247;SDS011;22287;50.824;5.644;2023-02-13T10:54:31;21.13;;;10.50;;
36247;SDS011;22287;50.824;5.644;2023-02-13T11:06:57;24.13;;;10.73;;
36247;SDS011;22287;50.824;5.644;2023-02-13T11:09:40;17.05;;;9.77;;
36247;SDS011;22287;50.824;5.644;2023-02-13T11:12:28;19.33;;;9.75;;
36247;SDS011;22287;50.824;5.644;2023-02-13T11:15:06;16.17;;;9.90;;
36247;SDS011;22287;50.824;5.644;2023-02-13T11:17:47;16.95;;;9.30;;
36247;SDS011;22287;50.824;5.644;2023-02-13T11:26:14;13.60;;;7.70;;
36247;SDS011;22287;50.824;5.644;2023-02-13T11:29:27;13.13;;;8.18;;
36247;SDS011;22287;50.824;5.644;2023-02-13T11:32:00;17.95;;;7.90;;
36247;SDS011;22287;50.824;5.644;2023-02-13T11:35:15;18.40;;;8.73;;
36247;SDS011;22287;50.824;5.644;2023-02-13T11:40:41;15.10;;;8.40;;
36247;SDS011;22287;50.824;5.644;2023-02-13T11:43:16;14.90;;;8.30;;
36247;SDS011;22287;50.824;5.644;2023-02-13T11:45:45;17.88;;;7.80;;
36247;SDS011;22287;50.824;5.644;2023-02-13T11:48:18;15.23;;;8.85;;
36247;SDS011;22287;50.824;5.644;2023-02-13T11:50:53;28.80;;;9.20;;
36247;SDS011;22287;50.824;5.644;2023-02-13T11:53:24;18.77;;;9.82;;
36247;SDS011;22287;50.824;5.644;2023-02-13T11:58:36;19.52;;;8.95;;
36247;SDS011;22287;50.824;5.644;2023-02-13T12:06:33;17.25;;;10.18;;
36247;SDS011;22287;50.824;5.644;2023-02-13T12:09:09;17.55;;;9.80;;
36247;SDS011;22287;50.824;5.644;2023-02-13T12:11:47;15.00;;;8.85;;
36247;SDS011;22287;50.824;5.644;2023-02-13T12:14:21;15.30;;;9.75;;
36247;SDS011;22287;50.824;5.644;2023-02-13T12:16:55;14.85;;;9.32;;
36247;SDS011;22287;50.824;5.644;2023-02-13T12:19:33;13.43;;;8.25;;
36247;SDS011;22287;50.824;5.644;2023-02-13T12:22:14;14.23;;;8.38;;
36247;SDS011;22287;50.824;5.644;2023-02-13T12:25:10;18.20;;;8.98;;
36247;SDS011;22287;50.824;5.644;2023-02-13T12:30:51;17.08;;;8.57;;
36247;SDS011;22287;50.824;5.644;2023-02-13T12:36:52;16.85;;;9.23;;
36247;SDS011;22287;50.824;5.644;2023-02-13T12:39:33;19.42;;;11.23;;
36247;SDS011;22287;50.824;5.644;2023-02-13T12:47:30;13.98;;;8.90;;
36247;SDS011;22287;50.824;5.644;2023-02-13T12:58:17;16.80;;;10.35;;
36247;SDS011;22287;50.824;5.644;2023-02-13T13:03:40;13.25;;;8.55;;
36247;SDS011;22287;50.824;5.644;2023-02-13T13:19:44;17.65;;;11.57;;
36247;SDS011;22287;50.824;5.644;2023-02-13T13:22:17;32.97;;;21.45;;
36247;SDS011;22287;50.824;5.644;2023-02-13T13:25:07;19.00;;;12.10;;
36247;SDS011;22287;50.824;5.644;2023-02-13T13:27:36;18.83;;;10.20;;
36247;SDS011;22287;50.824;5.644;2023-02-13T13:32:41;16.90;;;10.45;;
36247;SDS011;22287;50.824;5.644;2023-02-13T13:35:12;15.15;;;8.52;;
36247;SDS011;22287;50.824;5.644;2023-02-13T13:37:47;19.42;;;12.80;;
36247;SDS011;22287;50.824;5.644;2023-02-13T13:40:41;19.75;;;13.15;;
36247;SDS011;22287;50.824;5.644;2023-02-13T13:43:21;15.88;;;10.30;;
36247;SDS011;22287;50.824;5.644;2023-02-13T13:51:24;16.08;;;9.32;;
36247;SDS011;22287;50.824;5.644;2023-02-13T13:59:24;10.77;;;7.80;;
36247;SDS011;22287;50.824;5.644;2023-02-13T14:07:25;12.65;;;8.23;;
36247;SDS011;22287;50.824;5.644;2023-02-13T14:09:58;17.60;;;10.18;;
36247;SDS011;22287;50.824;5.644;2023-02-13T14:14:55;13.93;;;7.85;;
36247;SDS011;22287;50.824;5.644;2023-02-13T14:20:27;12.43;;;7.72;;
36247;SDS011;22287;50.824;5.644;2023-02-13T14:25:44;12.85;;;7.57;;
36247;SDS011;22287;50.824;5.644;2023-02-13T14:36:31;16.60;;;8.90;;
36247;SDS011;22287;50.824;5.644;2023-02-13T14:39:04;12.60;;;7.70;;
36247;SDS011;22287;50.824;5.644;2023-02-13T14:41:43;11.98;;;8.38;;
36247;SDS011;22287;50.824;5.644;2023-02-13T14:46:50;13.60;;;8.00;;
36247;SDS011;22287;50.824;5.644;2023-02-13T14:49:20;15.65;;;9.90;;
36247;SDS011;22287;50.824;5.644;2023-02-13T14:54:33;16.67;;;11.55;;
36247;SDS011;22287;50.824;5.644;2023-02-13T14:57:05;17.05;;;9.50;;
36247;SDS011;22287;50.824;5.644;2023-02-13T14:59:42;12.35;;;9.48;;
36247;SDS011;22287;50.824;5.644;2023-02-13T15:07:55;10.98;;;7.82;;
36247;SDS011;22287;50.824;5.644;2023-02-13T15:10:38;10.20;;;6.85;;
36247;SDS011;22287;50.824;5.644;2023-02-13T15:13:14;12.95;;;7.35;;
36247;SDS011;22287;50.824;5.644;2023-02-13T15:15:44;12.70;;;7.90;;
36247;SDS011;22287;50.824;5.644;2023-02-13T15:18:17;10.82;;;7.22;;
36247;SDS011;22287;50.824;5.644;2023-02-13T15:20:47;11.98;;;7.80;;
36247;SDS011;22287;50.824;5.644;2023-02-13T15:23:19;12.77;;;7.97;;
36247;SDS011;22287;50.824;5.644;2023-02-13T15:25:55;10.07;;;5.97;;
36247;SDS011;22287;50.824;5.644;2023-02-13T15:28:23;9.43;;;5.75;;
36247;SDS011;22287;50.824;5.644;2023-02-13T15:30:54;13.20;;;6.43;;
36247;SDS011;22287;50.824;5.644;2023-02-13T15:33:26;12.63;;;6.45;;
36247;SDS011;22287;50.824;5.644;2023-02-13T15:36:01;11.30;;;6.88;;
36247;SDS011;22287;50.824;5.644;2023-02-13T15:38:31;10.45;;;6.45;;
36247;SDS011;22287;50.824;5.644;2023-02-13T15:41:03;12.32;;;6.60;;
36247;SDS011;22287;50.824;5.644;2023-02-13T15:43:36;10.98;;;6.53;;
36247;SDS011;22287;50.824;5.644;2023-02-13T15:46:16;15.20;;;6.68;;
36247;SDS011;22287;50.824;5.644;2023-02-13T15:48:43;9.82;;;5.95;;
36247;SDS011;22287;50.824;5.644;2023-02-13T15:51:29;10.05;;;6.75;;
36247;SDS011;22287;50.824;5.644;2023-02-13T15:53:58;10.45;;;6.68;;
36247;SDS011;22287;50.824;5.644;2023-02-13T15:56:27;12.60;;;6.65;;
36247;SDS011;22287;50.824;5.644;2023-02-13T15:58:56;10.35;;;6.05;;
36247;SDS011;22287;50.824;5.644;2023-02-13T16:01:25;8.52;;;5.60;;
36247;SDS011;22287;50.824;5.644;2023-02-13T16:04:02;12.32;;;6.13;;
36247;SDS011;22287;50.824;5.644;2023-02-13T16:06:32;11.30;;;6.75;;
36247;SDS011;22287;50.824;5.644;2023-02-13T16:09:00;10.63;;;6.20;;
36247;SDS011;22287;50.824;5.644;2023-02-13T16:16:45;15.57;;;9.05;;
36247;SDS011;22287;50.824;5.644;2023-02-13T16:19:26;29.25;;;14.98;;
36247;SDS011;22287;50.824;5.644;2023-02-13T16:28:02;21.33;;;10.27;;
36247;SDS011;22287;50.824;5.644;2023-02-13T16:30:40;18.92;;;10.52;;
36247;SDS011;22287;50.824;5.644;2023-02-13T16:35:46;17.02;;;9.73;;
36247;SDS011;22287;50.824;5.644;2023-02-13T16:41:04;19.65;;;10.73;;
36247;SDS011;22287;50.824;5.644;2023-02-13T16:53:56;16.60;;;9.10;;
36247;SDS011;22287;50.824;5.644;2023-02-13T16:56:25;15.38;;;9.07;;
36247;SDS011;22287;50.824;5.644;2023-02-13T17:02:06;17.13;;;8.43;;
36247;SDS011;22287;50.824;5.644;2023-02-13T17:07:17;11.98;;;7.80;;
36247;SDS011;22287;50.824;5.644;2023-02-13T17:13:15;14.30;;;7.25;;
36247;SDS011;22287;50.824;5.644;2023-02-13T17:15:45;10.38;;;6.80;;
36247;SDS011;22287;50.824;5.644;2023-02-13T17:18:14;19.73;;;8.07;;
36247;SDS011;22287;50.824;5.644;2023-02-13T17:20:42;10.90;;;7.03;;
36247;SDS011;22287;50.824;5.644;2023-02-13T17:23:14;12.55;;;7.50;;
36247;SDS011;22287;50.824;5.644;2023-02-13T17:25:43;10.50;;;5.45;;
36247;SDS011;22287;50.824;5.644;2023-02-13T17:28:13;10.95;;;6.00;;
36247;SDS011;22287;50.824;5.644;2023-02-13T17:30:43;9.85;;;5.95;;
36247;SDS011;22287;50.824;5.644;2023-02-13T17:33:25;9.88;;;6.25;;
36247;SDS011;22287;50.824;5.644;2023-02-13T17:36:03;10.65;;;6.20;;
36247;SDS011;22287;50.824;5.644;2023-02-13T17:38:30;10.35;;;6.13;;
36247;SDS011;22287;50.824;5.644;2023-02-13T17:40:57;9.60;;;5.97;;
36247;SDS011;22287;50.824;5.644;2023-02-13T17:43:24;11.68;;;5.90;;
36247;SDS011;22287;50.824;5.644;2023-02-13T17:45:52;12.07;;;7.03;;
36247;SDS011;22287;50.824;5.644;2023-02-13T17:48:22;10.30;;;5.78;;
36247;SDS011;22287;50.824;5.644;2023-02-13T17:50:49;10.30;;;6.22;;
36247;SDS011;22287;50.824;5.644;2023-02-13T17:53:20;11.05;;;6.78;;
36247;SDS011;22287;50.824;5.644;2023-02-13T17:55:49;15.43;;;6.85;;
36247;SDS011;22287;50.824;5.644;2023-02-13T17:58:16;11.55;;;6.70;;
36247;SDS011;22287;50.824;5.644;2023-02-13T18:00:43;11.52;;;7.28;;
36247;SDS011;22287;50.824;5.644;2023-02-13T18:03:10;13.50;;;7.30;;
36247;SDS011;22287;50.824;5.644;2023-02-13T18:05:37;13.73;;;8.23;;
36247;SDS011;22287;50.824;5.644;2023-02-13T18:08:05;13.77;;;7.57;;
36247;SDS011;22287;50.824;5.644;2023-02-13T18:10:33;16.48;;;7.97;;
36247;SDS011;22287;50.824;5.644;2023-02-13T18:13:01;11.10;;;7.28;;
36247;SDS011;22287;50.824;5.644;2023-02-13T18:15:33;12.80;;;7.03;;
36247;SDS011;22287;50.824;5.644;2023-02-13T18:18:03;11.35;;;6.53;;